Cove Neck, New York
Current Conditions -  °F | °C
As of 10:53 AM on Friday 19 Dec 2014 (Local Time) from KFRG Reporting Station
Overcast Overcast  
Wind Chill: 28°   Ceiling: 3600
Heat Index: 37°   Visibility: 10mi
Dew Point: 21°   Wind: 15mph
Humidity: 52%   Direction: 330°NNW
Pressure: 30.03"   Gusts: 20mph
Location:  40.8615°N, 73.5265°W
Report Text: KFRG 191553Z 33013G17KT 10SM OVC036 03/M06 A3003 RMK AO2 SLP170 T00281061
Loading
Personal Weather Stations






























Interactive Weather Map New forecast layout! Learn more

10-Day Weather Forecast

Advertisements
Track Severe Weather on mobile